sensor_id;sensor_type;location;lat;lon;timestamp;P1;durP1;ratioP1;P2;durP2;ratioP2
65853;SDS011;52627;48.838;2.402;2024-03-08T00:00:15;30.80;;;18.50;;
65853;SDS011;52627;48.838;2.402;2024-03-08T00:02:45;31.00;;;18.40;;
65853;SDS011;52627;48.838;2.402;2024-03-08T00:05:14;30.20;;;19.60;;
65853;SDS011;52627;48.838;2.402;2024-03-08T00:07:42;29.60;;;17.80;;
65853;SDS011;52627;48.838;2.402;2024-03-08T00:10:12;29.60;;;18.80;;
65853;SDS011;52627;48.838;2.402;2024-03-08T00:12:45;31.10;;;20.00;;
65853;SDS011;52627;48.838;2.402;2024-03-08T00:15:16;32.50;;;18.90;;
65853;SDS011;52627;48.838;2.402;2024-03-08T00:17:46;29.10;;;18.10;;
65853;SDS011;52627;48.838;2.402;2024-03-08T00:20:16;28.50;;;18.40;;
65853;SDS011;52627;48.838;2.402;2024-03-08T00:22:46;31.40;;;19.10;;
65853;SDS011;52627;48.838;2.402;2024-03-08T00:25:14;32.50;;;19.50;;
65853;SDS011;52627;48.838;2.402;2024-03-08T00:27:42;29.00;;;18.50;;
65853;SDS011;52627;48.838;2.402;2024-03-08T00:30:10;27.80;;;17.20;;
65853;SDS011;52627;48.838;2.402;2024-03-08T00:32:40;32.70;;;18.10;;
65853;SDS011;52627;48.838;2.402;2024-03-08T00:35:08;33.80;;;19.80;;
65853;SDS011;52627;48.838;2.402;2024-03-08T00:37:38;32.20;;;18.40;;
65853;SDS011;52627;48.838;2.402;2024-03-08T00:40:07;33.30;;;18.90;;
65853;SDS011;52627;48.838;2.402;2024-03-08T00:42:37;29.00;;;18.10;;
65853;SDS011;52627;48.838;2.402;2024-03-08T00:45:06;35.00;;;20.10;;
65853;SDS011;52627;48.838;2.402;2024-03-08T00:47:33;32.80;;;19.40;;
65853;SDS011;52627;48.838;2.402;2024-03-08T00:50:01;31.50;;;19.30;;
65853;SDS011;52627;48.838;2.402;2024-03-08T00:52:31;32.90;;;19.90;;
65853;SDS011;52627;48.838;2.402;2024-03-08T00:54:59;32.10;;;19.90;;
65853;SDS011;52627;48.838;2.402;2024-03-08T00:57:27;34.40;;;20.00;;
65853;SDS011;52627;48.838;2.402;2024-03-08T00:59:55;31.50;;;19.00;;
65853;SDS011;52627;48.838;2.402;2024-03-08T01:02:23;33.40;;;20.60;;
65853;SDS011;52627;48.838;2.402;2024-03-08T01:04:51;33.50;;;19.60;;
65853;SDS011;52627;48.838;2.402;2024-03-08T01:07:18;33.40;;;20.80;;
65853;SDS011;52627;48.838;2.402;2024-03-08T01:09:46;31.60;;;19.50;;
65853;SDS011;52627;48.838;2.402;2024-03-08T01:12:14;30.80;;;18.60;;
65853;SDS011;52627;48.838;2.402;2024-03-08T01:14:42;33.90;;;19.50;;
65853;SDS011;52627;48.838;2.402;2024-03-08T01:17:10;35.10;;;20.80;;
65853;SDS011;52627;48.838;2.402;2024-03-08T01:19:39;38.30;;;19.90;;
65853;SDS011;52627;48.838;2.402;2024-03-08T01:22:06;32.50;;;19.90;;
65853;SDS011;52627;48.838;2.402;2024-03-08T01:24:34;33.80;;;20.70;;
65853;SDS011;52627;48.838;2.402;2024-03-08T01:27:03;34.60;;;19.20;;
65853;SDS011;52627;48.838;2.402;2024-03-08T01:29:30;32.00;;;18.90;;
65853;SDS011;52627;48.838;2.402;2024-03-08T01:31:58;35.10;;;21.00;;
65853;SDS011;52627;48.838;2.402;2024-03-08T01:34:29;34.40;;;20.70;;
65853;SDS011;52627;48.838;2.402;2024-03-08T01:36:57;36.40;;;21.00;;
65853;SDS011;52627;48.838;2.402;2024-03-08T01:39:25;36.00;;;22.20;;
65853;SDS011;52627;48.838;2.402;2024-03-08T01:41:52;37.40;;;20.80;;
65853;SDS011;52627;48.838;2.402;2024-03-08T01:44:21;38.50;;;21.50;;
65853;SDS011;52627;48.838;2.402;2024-03-08T01:46:50;34.20;;;21.20;;
65853;SDS011;52627;48.838;2.402;2024-03-08T01:49:21;36.50;;;20.90;;
65853;SDS011;52627;48.838;2.402;2024-03-08T01:51:49;36.20;;;20.60;;
65853;SDS011;52627;48.838;2.402;2024-03-08T01:54:18;39.90;;;21.70;;
65853;SDS011;52627;48.838;2.402;2024-03-08T01:56:47;36.30;;;19.80;;
65853;SDS011;52627;48.838;2.402;2024-03-08T01:59:15;34.50;;;20.00;;
65853;SDS011;52627;48.838;2.402;2024-03-08T02:01:44;37.90;;;20.70;;
65853;SDS011;52627;48.838;2.402;2024-03-08T02:04:11;36.30;;;20.90;;
65853;SDS011;52627;48.838;2.402;2024-03-08T02:06:39;37.80;;;21.50;;
65853;SDS011;52627;48.838;2.402;2024-03-08T02:09:06;40.90;;;21.40;;
65853;SDS011;52627;48.838;2.402;2024-03-08T02:11:35;35.80;;;20.40;;
65853;SDS011;52627;48.838;2.402;2024-03-08T02:14:04;36.00;;;22.10;;
65853;SDS011;52627;48.838;2.402;2024-03-08T02:16:33;37.00;;;21.00;;
65853;SDS011;52627;48.838;2.402;2024-03-08T02:19:01;35.40;;;20.50;;
65853;SDS011;52627;48.838;2.402;2024-03-08T02:21:29;37.20;;;21.10;;
65853;SDS011;52627;48.838;2.402;2024-03-08T02:23:57;36.80;;;21.90;;
65853;SDS011;52627;48.838;2.402;2024-03-08T02:26:24;35.80;;;21.10;;
65853;SDS011;52627;48.838;2.402;2024-03-08T02:28:52;39.50;;;21.90;;
65853;SDS011;52627;48.838;2.402;2024-03-08T02:31:19;37.10;;;20.60;;
65853;SDS011;52627;48.838;2.402;2024-03-08T02:33:47;35.30;;;21.20;;
65853;SDS011;52627;48.838;2.402;2024-03-08T02:36:16;37.60;;;21.40;;
65853;SDS011;52627;48.838;2.402;2024-03-08T02:38:44;38.60;;;21.90;;
65853;SDS011;52627;48.838;2.402;2024-03-08T02:41:11;39.90;;;22.50;;
65853;SDS011;52627;48.838;2.402;2024-03-08T02:43:39;36.60;;;20.20;;
65853;SDS011;52627;48.838;2.402;2024-03-08T02:46:06;36.60;;;20.80;;
65853;SDS011;52627;48.838;2.402;2024-03-08T02:48:34;38.10;;;21.30;;
65853;SDS011;52627;48.838;2.402;2024-03-08T02:51:03;37.50;;;21.20;;
65853;SDS011;52627;48.838;2.402;2024-03-08T02:53:31;40.70;;;21.20;;
65853;SDS011;52627;48.838;2.402;2024-03-08T02:55:58;36.50;;;20.40;;
65853;SDS011;52627;48.838;2.402;2024-03-08T02:58:26;38.90;;;21.80;;
65853;SDS011;52627;48.838;2.402;2024-03-08T03:00:54;38.70;;;21.10;;
65853;SDS011;52627;48.838;2.402;2024-03-08T03:03:22;36.10;;;20.40;;
65853;SDS011;52627;48.838;2.402;2024-03-08T03:05:49;38.90;;;21.20;;
65853;SDS011;52627;48.838;2.402;2024-03-08T03:08:17;39.60;;;22.30;;
65853;SDS011;52627;48.838;2.402;2024-03-08T03:10:45;37.20;;;20.50;;
65853;SDS011;52627;48.838;2.402;2024-03-08T03:13:13;37.70;;;20.70;;
65853;SDS011;52627;48.838;2.402;2024-03-08T03:15:46;36.80;;;20.70;;
65853;SDS011;52627;48.838;2.402;2024-03-08T03:18:14;40.30;;;22.40;;
65853;SDS011;52627;48.838;2.402;2024-03-08T03:20:43;36.80;;;20.40;;
65853;SDS011;52627;48.838;2.402;2024-03-08T03:23:11;39.30;;;22.10;;
65853;SDS011;52627;48.838;2.402;2024-03-08T03:25:43;39.70;;;20.60;;
65853;SDS011;52627;48.838;2.402;2024-03-08T03:28:11;38.70;;;21.00;;
65853;SDS011;52627;48.838;2.402;2024-03-08T03:33:11;39.10;;;21.00;;
65853;SDS011;52627;48.838;2.402;2024-03-08T03:35:40;38.60;;;20.10;;
65853;SDS011;52627;48.838;2.402;2024-03-08T03:38:09;40.90;;;21.20;;
65853;SDS011;52627;48.838;2.402;2024-03-08T03:40:39;36.80;;;21.00;;
65853;SDS011;52627;48.838;2.402;2024-03-08T03:43:08;40.70;;;21.30;;
65853;SDS011;52627;48.838;2.402;2024-03-08T03:45:39;39.10;;;21.80;;
65853;SDS011;52627;48.838;2.402;2024-03-08T03:48:09;38.20;;;22.10;;
65853;SDS011;52627;48.838;2.402;2024-03-08T03:50:38;37.80;;;20.70;;
65853;SDS011;52627;48.838;2.402;2024-03-08T03:53:08;36.90;;;21.00;;
65853;SDS011;52627;48.838;2.402;2024-03-08T03:55:37;41.10;;;20.80;;
65853;SDS011;52627;48.838;2.402;2024-03-08T03:58:08;38.50;;;20.70;;
65853;SDS011;52627;48.838;2.402;2024-03-08T04:00:38;35.90;;;19.80;;
65853;SDS011;52627;48.838;2.402;2024-03-08T04:03:06;43.20;;;21.10;;
65853;SDS011;52627;48.838;2.402;2024-03-08T04:05:36;38.80;;;20.70;;
65853;SDS011;52627;48.838;2.402;2024-03-08T04:08:04;39.70;;;21.00;;
65853;SDS011;52627;48.838;2.402;2024-03-08T04:10:32;43.20;;;21.70;;
65853;SDS011;52627;48.838;2.402;2024-03-08T04:12:59;39.90;;;21.20;;
65853;SDS011;52627;48.838;2.402;2024-03-08T04:15:27;38.80;;;20.30;;
65853;SDS011;52627;48.838;2.402;2024-03-08T04:17:54;38.50;;;21.20;;
65853;SDS011;52627;48.838;2.402;2024-03-08T04:20:22;36.30;;;21.80;;
65853;SDS011;52627;48.838;2.402;2024-03-08T04:22:50;42.10;;;21.40;;
65853;SDS011;52627;48.838;2.402;2024-03-08T04:25:17;37.30;;;20.30;;
65853;SDS011;52627;48.838;2.402;2024-03-08T04:27:45;38.60;;;22.20;;
65853;SDS011;52627;48.838;2.402;2024-03-08T04:30:14;38.20;;;20.30;;
65853;SDS011;52627;48.838;2.402;2024-03-08T04:32:42;40.10;;;20.70;;
65853;SDS011;52627;48.838;2.402;2024-03-08T04:35:10;35.10;;;19.90;;
65853;SDS011;52627;48.838;2.402;2024-03-08T04:37:40;40.30;;;21.00;;
65853;SDS011;52627;48.838;2.402;2024-03-08T04:40:08;40.20;;;21.20;;
65853;SDS011;52627;48.838;2.402;2024-03-08T04:42:37;44.10;;;22.80;;
65853;SDS011;52627;48.838;2.402;2024-03-08T04:45:08;41.40;;;22.10;;
65853;SDS011;52627;48.838;2.402;2024-03-08T04:47:38;43.00;;;23.60;;
65853;SDS011;52627;48.838;2.402;2024-03-08T04:50:07;39.40;;;20.70;;
65853;SDS011;52627;48.838;2.402;2024-03-08T04:52:36;40.80;;;21.20;;
65853;SDS011;52627;48.838;2.402;2024-03-08T04:55:04;37.60;;;20.70;;
65853;SDS011;52627;48.838;2.402;2024-03-08T04:57:33;42.40;;;22.70;;
65853;SDS011;52627;48.838;2.402;2024-03-08T05:00:03;42.00;;;22.00;;
65853;SDS011;52627;48.838;2.402;2024-03-08T05:02:39;41.00;;;21.00;;
65853;SDS011;52627;48.838;2.402;2024-03-08T05:05:07;45.20;;;21.80;;
65853;SDS011;52627;48.838;2.402;2024-03-08T05:07:41;41.60;;;21.60;;
65853;SDS011;52627;48.838;2.402;2024-03-08T05:10:08;38.80;;;22.00;;
65853;SDS011;52627;48.838;2.402;2024-03-08T05:12:36;39.70;;;21.00;;
65853;SDS011;52627;48.838;2.402;2024-03-08T05:15:06;41.50;;;21.00;;
65853;SDS011;52627;48.838;2.402;2024-03-08T05:17:35;40.70;;;21.20;;
65853;SDS011;52627;48.838;2.402;2024-03-08T05:20:03;39.50;;;20.00;;
65853;SDS011;52627;48.838;2.402;2024-03-08T05:22:31;41.80;;;21.70;;
65853;SDS011;52627;48.838;2.402;2024-03-08T05:24:58;38.30;;;20.80;;
65853;SDS011;52627;48.838;2.402;2024-03-08T05:27:26;39.00;;;20.10;;
65853;SDS011;52627;48.838;2.402;2024-03-08T05:29:55;39.90;;;20.60;;
65853;SDS011;52627;48.838;2.402;2024-03-08T05:32:23;40.00;;;22.20;;
65853;SDS011;52627;48.838;2.402;2024-03-08T05:34:53;41.40;;;21.50;;
65853;SDS011;52627;48.838;2.402;2024-03-08T05:37:21;40.70;;;20.20;;
65853;SDS011;52627;48.838;2.402;2024-03-08T05:39:49;43.30;;;21.00;;
65853;SDS011;52627;48.838;2.402;2024-03-08T05:42:16;40.40;;;21.50;;
65853;SDS011;52627;48.838;2.402;2024-03-08T05:44:44;39.20;;;21.20;;
65853;SDS011;52627;48.838;2.402;2024-03-08T05:47:11;43.20;;;23.00;;
65853;SDS011;52627;48.838;2.402;2024-03-08T05:49:39;40.80;;;21.50;;
65853;SDS011;52627;48.838;2.402;2024-03-08T05:52:06;38.50;;;19.90;;
65853;SDS011;52627;48.838;2.402;2024-03-08T05:54:34;41.50;;;22.40;;
65853;SDS011;52627;48.838;2.402;2024-03-08T05:57:01;40.70;;;20.80;;
65853;SDS011;52627;48.838;2.402;2024-03-08T05:59:29;41.50;;;20.60;;
65853;SDS011;52627;48.838;2.402;2024-03-08T06:01:56;42.50;;;21.70;;
65853;SDS011;52627;48.838;2.402;2024-03-08T06:04:25;40.00;;;21.40;;
65853;SDS011;52627;48.838;2.402;2024-03-08T06:06:52;44.10;;;21.90;;
65853;SDS011;52627;48.838;2.402;2024-03-08T06:09:23;41.80;;;22.10;;
65853;SDS011;52627;48.838;2.402;2024-03-08T06:11:52;37.80;;;20.50;;
65853;SDS011;52627;48.838;2.402;2024-03-08T06:14:22;44.80;;;21.30;;
65853;SDS011;52627;48.838;2.402;2024-03-08T06:16:50;46.60;;;21.70;;
65853;SDS011;52627;48.838;2.402;2024-03-08T06:19:18;41.20;;;20.90;;
65853;SDS011;52627;48.838;2.402;2024-03-08T06:21:46;42.00;;;20.90;;
65853;SDS011;52627;48.838;2.402;2024-03-08T06:24:13;42.10;;;20.60;;
65853;SDS011;52627;48.838;2.402;2024-03-08T06:26:43;43.00;;;21.60;;
65853;SDS011;52627;48.838;2.402;2024-03-08T06:29:10;43.10;;;22.30;;
65853;SDS011;52627;48.838;2.402;2024-03-08T06:31:38;44.40;;;24.70;;
65853;SDS011;52627;48.838;2.402;2024-03-08T06:34:07;43.50;;;22.30;;
65853;SDS011;52627;48.838;2.402;2024-03-08T06:36:36;42.30;;;20.70;;
65853;SDS011;52627;48.838;2.402;2024-03-08T06:39:06;39.80;;;20.70;;
65853;SDS011;52627;48.838;2.402;2024-03-08T06:41:37;41.00;;;21.90;;
65853;SDS011;52627;48.838;2.402;2024-03-08T06:44:05;41.40;;;21.70;;
65853;SDS011;52627;48.838;2.402;2024-03-08T06:46:35;39.20;;;21.10;;
65853;SDS011;52627;48.838;2.402;2024-03-08T06:49:03;40.30;;;20.90;;
65853;SDS011;52627;48.838;2.402;2024-03-08T06:51:31;45.10;;;21.50;;
65853;SDS011;52627;48.838;2.402;2024-03-08T06:54:00;42.00;;;21.00;;
65853;SDS011;52627;48.838;2.402;2024-03-08T06:56:28;40.10;;;21.70;;
65853;SDS011;52627;48.838;2.402;2024-03-08T06:58:57;41.00;;;20.80;;
65853;SDS011;52627;48.838;2.402;2024-03-08T07:01:24;46.60;;;22.60;;
65853;SDS011;52627;48.838;2.402;2024-03-08T07:03:52;40.90;;;20.40;;
65853;SDS011;52627;48.838;2.402;2024-03-08T07:06:19;43.50;;;22.70;;
65853;SDS011;52627;48.838;2.402;2024-03-08T07:08:48;41.70;;;21.40;;
65853;SDS011;52627;48.838;2.402;2024-03-08T07:11:16;43.30;;;21.60;;
65853;SDS011;52627;48.838;2.402;2024-03-08T07:13:46;41.20;;;22.00;;
65853;SDS011;52627;48.838;2.402;2024-03-08T07:16:13;40.80;;;21.10;;
65853;SDS011;52627;48.838;2.402;2024-03-08T07:18:41;43.80;;;22.00;;
65853;SDS011;52627;48.838;2.402;2024-03-08T07:21:11;45.50;;;21.90;;
65853;SDS011;52627;48.838;2.402;2024-03-08T07:23:39;43.60;;;21.30;;
65853;SDS011;52627;48.838;2.402;2024-03-08T07:26:17;43.50;;;21.50;;
65853;SDS011;52627;48.838;2.402;2024-03-08T07:28:46;38.00;;;21.30;;
65853;SDS011;52627;48.838;2.402;2024-03-08T07:31:14;42.80;;;21.40;;
65853;SDS011;52627;48.838;2.402;2024-03-08T07:33:41;42.30;;;21.60;;
65853;SDS011;52627;48.838;2.402;2024-03-08T07:36:09;37.70;;;19.80;;
65853;SDS011;52627;48.838;2.402;2024-03-08T07:38:38;37.30;;;20.20;;
65853;SDS011;52627;48.838;2.402;2024-03-08T07:41:05;37.60;;;20.00;;
65853;SDS011;52627;48.838;2.402;2024-03-08T07:43:33;37.70;;;21.00;;
65853;SDS011;52627;48.838;2.402;2024-03-08T07:46:00;38.10;;;19.50;;
65853;SDS011;52627;48.838;2.402;2024-03-08T07:48:28;40.80;;;20.70;;
65853;SDS011;52627;48.838;2.402;2024-03-08T07:50:56;39.80;;;21.40;;
65853;SDS011;52627;48.838;2.402;2024-03-08T07:53:24;40.00;;;22.50;;
65853;SDS011;52627;48.838;2.402;2024-03-08T07:55:52;38.40;;;20.40;;
65853;SDS011;52627;48.838;2.402;2024-03-08T07:58:20;39.80;;;20.70;;
65853;SDS011;52627;48.838;2.402;2024-03-08T08:00:47;37.40;;;20.30;;
65853;SDS011;52627;48.838;2.402;2024-03-08T08:03:16;37.80;;;19.20;;
65853;SDS011;52627;48.838;2.402;2024-03-08T08:05:48;36.60;;;19.20;;
65853;SDS011;52627;48.838;2.402;2024-03-08T08:08:16;37.90;;;20.50;;
65853;SDS011;52627;48.838;2.402;2024-03-08T08:10:44;40.90;;;20.60;;
65853;SDS011;52627;48.838;2.402;2024-03-08T08:13:11;37.10;;;19.90;;
65853;SDS011;52627;48.838;2.402;2024-03-08T08:15:40;37.30;;;19.60;;
65853;SDS011;52627;48.838;2.402;2024-03-08T08:18:07;37.20;;;19.50;;
65853;SDS011;52627;48.838;2.402;2024-03-08T08:20:37;36.50;;;19.40;;
65853;SDS011;52627;48.838;2.402;2024-03-08T08:23:04;37.80;;;19.10;;
65853;SDS011;52627;48.838;2.402;2024-03-08T08:25:33;37.90;;;18.50;;
65853;SDS011;52627;48.838;2.402;2024-03-08T08:28:02;35.70;;;17.80;;
65853;SDS011;52627;48.838;2.402;2024-03-08T08:30:32;34.50;;;17.40;;
65853;SDS011;52627;48.838;2.402;2024-03-08T08:33:02;33.40;;;18.10;;
65853;SDS011;52627;48.838;2.402;2024-03-08T08:35:33;36.30;;;18.30;;
65853;SDS011;52627;48.838;2.402;2024-03-08T08:38:00;32.50;;;17.40;;
65853;SDS011;52627;48.838;2.402;2024-03-08T08:40:28;29.90;;;17.40;;
65853;SDS011;52627;48.838;2.402;2024-03-08T08:42:58;32.00;;;17.80;;
65853;SDS011;52627;48.838;2.402;2024-03-08T08:45:26;31.30;;;16.00;;
65853;SDS011;52627;48.838;2.402;2024-03-08T08:47:54;31.70;;;16.50;;
65853;SDS011;52627;48.838;2.402;2024-03-08T08:50:23;31.00;;;16.80;;
65853;SDS011;52627;48.838;2.402;2024-03-08T08:52:51;27.20;;;15.10;;
65853;SDS011;52627;48.838;2.402;2024-03-08T08:55:19;31.20;;;15.90;;
65853;SDS011;52627;48.838;2.402;2024-03-08T08:57:49;29.30;;;16.90;;
65853;SDS011;52627;48.838;2.402;2024-03-08T09:00:21;29.30;;;15.90;;
65853;SDS011;52627;48.838;2.402;2024-03-08T09:02:51;27.80;;;15.00;;
65853;SDS011;52627;48.838;2.402;2024-03-08T09:05:22;24.90;;;14.60;;
65853;SDS011;52627;48.838;2.402;2024-03-08T09:07:51;24.20;;;13.80;;
65853;SDS011;52627;48.838;2.402;2024-03-08T09:10:20;24.70;;;13.30;;
65853;SDS011;52627;48.838;2.402;2024-03-08T09:12:49;22.00;;;12.20;;
65853;SDS011;52627;48.838;2.402;2024-03-08T09:15:16;21.80;;;12.40;;
65853;SDS011;52627;48.838;2.402;2024-03-08T09:17:45;20.10;;;11.90;;
65853;SDS011;52627;48.838;2.402;2024-03-08T09:20:12;20.40;;;11.90;;
65853;SDS011;52627;48.838;2.402;2024-03-08T09:22:46;21.60;;;12.90;;
65853;SDS011;52627;48.838;2.402;2024-03-08T09:27:41;22.50;;;12.60;;
65853;SDS011;52627;48.838;2.402;2024-03-08T09:30:09;22.60;;;11.70;;
65853;SDS011;52627;48.838;2.402;2024-03-08T09:32:41;19.00;;;11.50;;
65853;SDS011;52627;48.838;2.402;2024-03-08T09:35:11;18.50;;;11.00;;
65853;SDS011;52627;48.838;2.402;2024-03-08T09:37:39;20.70;;;11.90;;
65853;SDS011;52627;48.838;2.402;2024-03-08T09:40:06;17.20;;;10.10;;
65853;SDS011;52627;48.838;2.402;2024-03-08T09:42:37;17.10;;;10.70;;
65853;SDS011;52627;48.838;2.402;2024-03-08T09:45:08;19.40;;;11.70;;
65853;SDS011;52627;48.838;2.402;2024-03-08T09:47:44;19.20;;;11.80;;
65853;SDS011;52627;48.838;2.402;2024-03-08T09:50:12;17.10;;;10.70;;
65853;SDS011;52627;48.838;2.402;2024-03-08T09:52:47;14.80;;;9.60;;
65853;SDS011;52627;48.838;2.402;2024-03-08T09:55:16;19.90;;;10.70;;
65853;SDS011;52627;48.838;2.402;2024-03-08T09:57:46;16.20;;;10.40;;
65853;SDS011;52627;48.838;2.402;2024-03-08T10:00:35;16.00;;;9.50;;
65853;SDS011;52627;48.838;2.402;2024-03-08T10:03:03;14.80;;;9.30;;
65853;SDS011;52627;48.838;2.402;2024-03-08T10:05:30;15.00;;;9.80;;
65853;SDS011;52627;48.838;2.402;2024-03-08T10:07:59;15.90;;;9.70;;
65853;SDS011;52627;48.838;2.402;2024-03-08T10:10:27;15.80;;;9.80;;
65853;SDS011;52627;48.838;2.402;2024-03-08T10:12:55;16.20;;;10.30;;
65853;SDS011;52627;48.838;2.402;2024-03-08T10:15:23;15.40;;;9.00;;
65853;SDS011;52627;48.838;2.402;2024-03-08T10:17:51;16.40;;;9.40;;
65853;SDS011;52627;48.838;2.402;2024-03-08T10:20:20;15.30;;;9.30;;
65853;SDS011;52627;48.838;2.402;2024-03-08T10:22:48;15.40;;;10.20;;
65853;SDS011;52627;48.838;2.402;2024-03-08T10:25:34;17.00;;;9.70;;
65853;SDS011;52627;48.838;2.402;2024-03-08T10:28:04;13.90;;;9.80;;
65853;SDS011;52627;48.838;2.402;2024-03-08T10:30:32;15.10;;;8.90;;
65853;SDS011;52627;48.838;2.402;2024-03-08T10:33:00;16.10;;;9.30;;
65853;SDS011;52627;48.838;2.402;2024-03-08T10:35:28;13.30;;;8.50;;
65853;SDS011;52627;48.838;2.402;2024-03-08T10:37:56;13.80;;;9.00;;
65853;SDS011;52627;48.838;2.402;2024-03-08T10:40:27;15.80;;;9.30;;
65853;SDS011;52627;48.838;2.402;2024-03-08T10:42:57;13.80;;;8.50;;
65853;SDS011;52627;48.838;2.402;2024-03-08T10:45:33;14.70;;;8.10;;
65853;SDS011;52627;48.838;2.402;2024-03-08T10:51:05;12.70;;;8.10;;
65853;SDS011;52627;48.838;2.402;2024-03-08T10:53:33;14.10;;;8.20;;
65853;SDS011;52627;48.838;2.402;2024-03-08T10:56:01;14.10;;;8.90;;
65853;SDS011;52627;48.838;2.402;2024-03-08T10:58:30;11.70;;;7.60;;
65853;SDS011;52627;48.838;2.402;2024-03-08T11:00:59;13.80;;;7.60;;
65853;SDS011;52627;48.838;2.402;2024-03-08T11:06:18;11.20;;;7.00;;
65853;SDS011;52627;48.838;2.402;2024-03-08T11:08:46;12.20;;;8.40;;
65853;SDS011;52627;48.838;2.402;2024-03-08T11:11:24;13.50;;;7.60;;
65853;SDS011;52627;48.838;2.402;2024-03-08T11:14:01;11.80;;;7.70;;
65853;SDS011;52627;48.838;2.402;2024-03-08T11:21:38;14.70;;;9.40;;
65853;SDS011;52627;48.838;2.402;2024-03-08T11:26:40;13.60;;;7.30;;
65853;SDS011;52627;48.838;2.402;2024-03-08T11:32:26;12.30;;;7.80;;
65853;SDS011;52627;48.838;2.402;2024-03-08T11:34:55;13.10;;;7.50;;
65853;SDS011;52627;48.838;2.402;2024-03-08T11:37:23;15.00;;;7.80;;
65853;SDS011;52627;48.838;2.402;2024-03-08T11:39:52;13.90;;;8.50;;
65853;SDS011;52627;48.838;2.402;2024-03-08T11:42:27;12.30;;;7.40;;
65853;SDS011;52627;48.838;2.402;2024-03-08T11:44:54;13.00;;;7.80;;
65853;SDS011;52627;48.838;2.402;2024-03-08T11:47:22;16.00;;;8.50;;
65853;SDS011;52627;48.838;2.402;2024-03-08T11:49:50;15.50;;;9.10;;
65853;SDS011;52627;48.838;2.402;2024-03-08T11:52:18;13.60;;;8.50;;
65853;SDS011;52627;48.838;2.402;2024-03-08T11:54:54;12.20;;;8.00;;
65853;SDS011;52627;48.838;2.402;2024-03-08T11:57:25;11.40;;;8.20;;
65853;SDS011;52627;48.838;2.402;2024-03-08T11:59:55;13.40;;;8.40;;
65853;SDS011;52627;48.838;2.402;2024-03-08T12:02:25;12.70;;;7.60;;
65853;SDS011;52627;48.838;2.402;2024-03-08T12:04:59;13.50;;;7.70;;
65853;SDS011;52627;48.838;2.402;2024-03-08T12:07:29;13.40;;;8.60;;
65853;SDS011;52627;48.838;2.402;2024-03-08T12:12:50;11.20;;;7.80;;
65853;SDS011;52627;48.838;2.402;2024-03-08T12:15:23;10.80;;;6.80;;
65853;SDS011;52627;48.838;2.402;2024-03-08T12:17:53;11.20;;;7.10;;
65853;SDS011;52627;48.838;2.402;2024-03-08T12:20:25;11.80;;;7.70;;
65853;SDS011;52627;48.838;2.402;2024-03-08T12:22:54;15.60;;;8.10;;
65853;SDS011;52627;48.838;2.402;2024-03-08T12:25:30;11.90;;;7.10;;
65853;SDS011;52627;48.838;2.402;2024-03-08T12:28:12;12.30;;;7.30;;
65853;SDS011;52627;48.838;2.402;2024-03-08T12:30:46;12.90;;;8.30;;
65853;SDS011;52627;48.838;2.402;2024-03-08T12:33:15;11.70;;;6.90;;
65853;SDS011;52627;48.838;2.402;2024-03-08T12:35:51;10.30;;;6.90;;
65853;SDS011;52627;48.838;2.402;2024-03-08T12:38:27;12.20;;;7.60;;
65853;SDS011;52627;48.838;2.402;2024-03-08T12:40:57;11.50;;;7.20;;
65853;SDS011;52627;48.838;2.402;2024-03-08T12:43:26;11.10;;;7.10;;
65853;SDS011;52627;48.838;2.402;2024-03-08T12:45:58;11.60;;;7.00;;
65853;SDS011;52627;48.838;2.402;2024-03-08T12:48:26;13.50;;;7.30;;
65853;SDS011;52627;48.838;2.402;2024-03-08T12:50:54;13.50;;;6.70;;
65853;SDS011;52627;48.838;2.402;2024-03-08T12:53:22;9.90;;;6.50;;
65853;SDS011;52627;48.838;2.402;2024-03-08T12:55:51;9.80;;;6.00;;
65853;SDS011;52627;48.838;2.402;2024-03-08T12:58:20;10.10;;;6.10;;
65853;SDS011;52627;48.838;2.402;2024-03-08T13:00:48;10.60;;;6.30;;
65853;SDS011;52627;48.838;2.402;2024-03-08T13:03:20;11.20;;;7.80;;
65853;SDS011;52627;48.838;2.402;2024-03-08T13:05:50;10.80;;;7.50;;
65853;SDS011;52627;48.838;2.402;2024-03-08T13:08:18;11.30;;;6.20;;
65853;SDS011;52627;48.838;2.402;2024-03-08T13:10:45;10.70;;;6.30;;
65853;SDS011;52627;48.838;2.402;2024-03-08T13:13:13;9.50;;;5.80;;
65853;SDS011;52627;48.838;2.402;2024-03-08T13:15:45;8.70;;;5.60;;
65853;SDS011;52627;48.838;2.402;2024-03-08T13:18:12;11.10;;;6.00;;
65853;SDS011;52627;48.838;2.402;2024-03-08T13:20:40;10.50;;;6.20;;
65853;SDS011;52627;48.838;2.402;2024-03-08T13:23:14;9.50;;;5.60;;
65853;SDS011;52627;48.838;2.402;2024-03-08T13:25:42;9.30;;;5.80;;
65853;SDS011;52627;48.838;2.402;2024-03-08T13:28:09;10.00;;;5.70;;
65853;SDS011;52627;48.838;2.402;2024-03-08T13:30:38;8.10;;;4.60;;
65853;SDS011;52627;48.838;2.402;2024-03-08T13:33:06;9.80;;;4.20;;
65853;SDS011;52627;48.838;2.402;2024-03-08T13:35:34;6.90;;;4.00;;
65853;SDS011;52627;48.838;2.402;2024-03-08T13:38:02;7.90;;;4.50;;
65853;SDS011;52627;48.838;2.402;2024-03-08T13:40:32;6.30;;;3.90;;
65853;SDS011;52627;48.838;2.402;2024-03-08T13:43:00;7.60;;;4.00;;
65853;SDS011;52627;48.838;2.402;2024-03-08T13:45:28;9.40;;;4.30;;
65853;SDS011;52627;48.838;2.402;2024-03-08T13:47:56;10.30;;;4.40;;
65853;SDS011;52627;48.838;2.402;2024-03-08T13:50:24;7.80;;;3.80;;
65853;SDS011;52627;48.838;2.402;2024-03-08T13:52:53;8.30;;;3.50;;
65853;SDS011;52627;48.838;2.402;2024-03-08T13:55:23;7.80;;;3.70;;
65853;SDS011;52627;48.838;2.402;2024-03-08T13:57:54;6.50;;;3.30;;
65853;SDS011;52627;48.838;2.402;2024-03-08T14:00:25;4.80;;;3.00;;
65853;SDS011;52627;48.838;2.402;2024-03-08T14:03:00;4.90;;;2.60;;
65853;SDS011;52627;48.838;2.402;2024-03-08T14:05:28;8.40;;;2.90;;
65853;SDS011;52627;48.838;2.402;2024-03-08T14:07:58;4.90;;;2.50;;
65853;SDS011;52627;48.838;2.402;2024-03-08T14:10:28;6.20;;;2.40;;
65853;SDS011;52627;48.838;2.402;2024-03-08T14:12:55;5.90;;;2.40;;
65853;SDS011;52627;48.838;2.402;2024-03-08T14:15:23;6.70;;;2.80;;
65853;SDS011;52627;48.838;2.402;2024-03-08T14:17:53;5.00;;;2.70;;
65853;SDS011;52627;48.838;2.402;2024-03-08T14:20:21;5.30;;;2.90;;
65853;SDS011;52627;48.838;2.402;2024-03-08T14:22:56;5.30;;;2.70;;
65853;SDS011;52627;48.838;2.402;2024-03-08T14:25:24;5.60;;;2.90;;
65853;SDS011;52627;48.838;2.402;2024-03-08T14:27:53;6.70;;;3.10;;
65853;SDS011;52627;48.838;2.402;2024-03-08T14:30:21;6.10;;;2.60;;
65853;SDS011;52627;48.838;2.402;2024-03-08T14:33:05;6.40;;;2.90;;
65853;SDS011;52627;48.838;2.402;2024-03-08T14:35:38;6.20;;;2.70;;
65853;SDS011;52627;48.838;2.402;2024-03-08T14:38:06;5.70;;;2.80;;
65853;SDS011;52627;48.838;2.402;2024-03-08T14:40:38;6.00;;;3.20;;
65853;SDS011;52627;48.838;2.402;2024-03-08T14:43:06;5.00;;;2.60;;
65853;SDS011;52627;48.838;2.402;2024-03-08T14:45:34;6.50;;;2.70;;
65853;SDS011;52627;48.838;2.402;2024-03-08T14:48:02;7.10;;;3.10;;
65853;SDS011;52627;48.838;2.402;2024-03-08T14:50:32;5.70;;;2.80;;
65853;SDS011;52627;48.838;2.402;2024-03-08T14:53:01;6.50;;;2.80;;
65853;SDS011;52627;48.838;2.402;2024-03-08T14:55:28;6.00;;;2.80;;
65853;SDS011;52627;48.838;2.402;2024-03-08T14:57:57;5.80;;;2.70;;
65853;SDS011;52627;48.838;2.402;2024-03-08T15:00:25;5.50;;;2.60;;
65853;SDS011;52627;48.838;2.402;2024-03-08T15:03:03;5.50;;;2.70;;